sensor_id;sensor_type;location;lat;lon;timestamp;pressure;altitude;pressure_sealevel;temperature;humidity
48680;BME280;34475;51.658;5.634;2023-01-05T00:00:00;101420;;;10.2;100.0
48680;BME280;34475;51.658;5.634;2023-01-05T00:01:04;101420;;;10.2;100.0
48680;BME280;34475;51.658;5.634;2023-01-05T00:02:00;101430;;;10.4;100.0
48680;BME280;34475;51.658;5.634;2023-01-05T00:03:00;101430;;;10.4;100.0
48680;BME280;34475;51.658;5.634;2023-01-05T00:04:00;101430;;;10.3;100.0
48680;BME280;34475;51.658;5.634;2023-01-05T00:05:00;101430;;;10.3;100.0
48680;BME280;34475;51.658;5.634;2023-01-05T00:06:00;101420;;;10.3;100.0
48680;BME280;34475;51.658;5.634;2023-01-05T00:07:00;101420;;;10.3;100.0
48680;BME280;34475;51.658;5.634;2023-01-05T00:08:00;101430;;;10.4;100.0
48680;BME280;34475;51.658;5.634;2023-01-05T00:09:00;101430;;;10.4;100.0
48680;BME280;34475;51.658;5.634;2023-01-05T00:10:00;101420;;;10.3;100.0
48680;BME280;34475;51.658;5.634;2023-01-05T00:11:04;101420;;;10.3;100.0
48680;BME280;34475;51.658;5.634;2023-01-05T00:12:00;101420;;;10.4;100.0
48680;BME280;34475;51.658;5.634;2023-01-05T00:13:00;101420;;;10.4;100.0
48680;BME280;34475;51.658;5.634;2023-01-05T00:14:00;101420;;;10.4;100.0
48680;BME280;34475;51.658;5.634;2023-01-05T00:15:00;101420;;;10.4;100.0
48680;BME280;34475;51.658;5.634;2023-01-05T00:16:00;101420;;;10.4;100.0
48680;BME280;34475;51.658;5.634;2023-01-05T00:17:00;101420;;;10.4;100.0
48680;BME280;34475;51.658;5.634;2023-01-05T00:18:00;101420;;;10.3;100.0
48680;BME280;34475;51.658;5.634;2023-01-05T00:19:00;101420;;;10.3;100.0
48680;BME280;34475;51.658;5.634;2023-01-05T00:20:00;101410;;;10.4;100.0
48680;BME280;34475;51.658;5.634;2023-01-05T00:21:01;101410;;;10.4;100.0
48680;BME280;34475;51.658;5.634;2023-01-05T00:22:00;101420;;;10.4;100.0
48680;BME280;34475;51.658;5.634;2023-01-05T00:23:00;101420;;;10.4;100.0
48680;BME280;34475;51.658;5.634;2023-01-05T00:24:00;101420;;;10.3;100.0
48680;BME280;34475;51.658;5.634;2023-01-05T00:25:01;101420;;;10.3;100.0
48680;BME280;34475;51.658;5.634;2023-01-05T00:26:00;101410;;;10.3;100.0
48680;BME280;34475;51.658;5.634;2023-01-05T00:27:00;101410;;;10.3;100.0
48680;BME280;34475;51.658;5.634;2023-01-05T00:28:00;101420;;;10.3;100.0
48680;BME280;34475;51.658;5.634;2023-01-05T00:29:00;101420;;;10.3;100.0
48680;BME280;34475;51.658;5.634;2023-01-05T00:30:00;101430;;;10.3;100.0
48680;BME280;34475;51.658;5.634;2023-01-05T00:31:00;101430;;;10.3;100.0
48680;BME280;34475;51.658;5.634;2023-01-05T00:32:00;101420;;;10.2;100.0
48680;BME280;34475;51.658;5.634;2023-01-05T00:33:00;101420;;;10.2;100.0
48680;BME280;34475;51.658;5.634;2023-01-05T00:34:00;101420;;;10.3;100.0
48680;BME280;34475;51.658;5.634;2023-01-05T00:35:00;101420;;;10.3;100.0
48680;BME280;34475;51.658;5.634;2023-01-05T00:36:00;101420;;;10.3;100.0
48680;BME280;34475;51.658;5.634;2023-01-05T00:37:00;101420;;;10.3;100.0
48680;BME280;34475;51.658;5.634;2023-01-05T00:38:00;101420;;;10.2;100.0
48680;BME280;34475;51.658;5.634;2023-01-05T00:39:00;101420;;;10.2;100.0
48680;BME280;34475;51.658;5.634;2023-01-05T00:40:00;101420;;;10.3;100.0
48680;BME280;34475;51.658;5.634;2023-01-05T00:41:00;101420;;;10.3;100.0
48680;BME280;34475;51.658;5.634;2023-01-05T00:42:00;101430;;;10.3;100.0
48680;BME280;34475;51.658;5.634;2023-01-05T00:43:00;101430;;;10.3;100.0
48680;BME280;34475;51.658;5.634;2023-01-05T00:44:00;101410;;;10.3;100.0
48680;BME280;34475;51.658;5.634;2023-01-05T00:45:00;101410;;;10.3;100.0
48680;BME280;34475;51.658;5.634;2023-01-05T00:46:00;101410;;;10.3;100.0
48680;BME280;34475;51.658;5.634;2023-01-05T00:47:00;101410;;;10.3;100.0
48680;BME280;34475;51.658;5.634;2023-01-05T00:48:00;101420;;;10.3;100.0
48680;BME280;34475;51.658;5.634;2023-01-05T00:49:00;101420;;;10.3;100.0
48680;BME280;34475;51.658;5.634;2023-01-05T00:50:00;101420;;;10.2;100.0
48680;BME280;34475;51.658;5.634;2023-01-05T00:51:00;101420;;;10.2;100.0
48680;BME280;34475;51.658;5.634;2023-01-05T00:52:00;101420;;;10.2;100.0
48680;BME280;34475;51.658;5.634;2023-01-05T00:53:00;101420;;;10.2;100.0
48680;BME280;34475;51.658;5.634;2023-01-05T00:54:00;101430;;;10.2;100.0
48680;BME280;34475;51.658;5.634;2023-01-05T00:55:00;101430;;;10.2;100.0
48680;BME280;34475;51.658;5.634;2023-01-05T00:56:00;101420;;;10.2;100.0
48680;BME280;34475;51.658;5.634;2023-01-05T00:57:00;101420;;;10.2;100.0
48680;BME280;34475;51.658;5.634;2023-01-05T00:58:00;101420;;;10.2;100.0
48680;BME280;34475;51.658;5.634;2023-01-05T00:59:00;101420;;;10.2;100.0
48680;BME280;34475;51.658;5.634;2023-01-05T01:00:00;101430;;;10.1;100.0
48680;BME280;34475;51.658;5.634;2023-01-05T01:01:00;101430;;;10.1;100.0
48680;BME280;34475;51.658;5.634;2023-01-05T01:02:00;101420;;;10.1;100.0
48680;BME280;34475;51.658;5.634;2023-01-05T01:03:00;101420;;;10.1;100.0
48680;BME280;34475;51.658;5.634;2023-01-05T01:04:00;101430;;;10.1;100.0
48680;BME280;34475;51.658;5.634;2023-01-05T01:05:00;101430;;;10.1;100.0
48680;BME280;34475;51.658;5.634;2023-01-05T01:06:00;101420;;;10.1;100.0
48680;BME280;34475;51.658;5.634;2023-01-05T01:07:01;101420;;;10.1;100.0
48680;BME280;34475;51.658;5.634;2023-01-05T01:08:00;101440;;;10.1;100.0
48680;BME280;34475;51.658;5.634;2023-01-05T01:09:00;101440;;;10.1;100.0
48680;BME280;34475;51.658;5.634;2023-01-05T01:10:00;101440;;;10.1;100.0
48680;BME280;34475;51.658;5.634;2023-01-05T01:11:08;101440;;;10.1;100.0
48680;BME280;34475;51.658;5.634;2023-01-05T01:12:00;101440;;;10.0;100.0
48680;BME280;34475;51.658;5.634;2023-01-05T01:13:00;101440;;;10.0;100.0
48680;BME280;34475;51.658;5.634;2023-01-05T01:14:00;101440;;;10.0;100.0
48680;BME280;34475;51.658;5.634;2023-01-05T01:15:00;101440;;;10.0;100.0
48680;BME280;34475;51.658;5.634;2023-01-05T01:16:08;101440;;;9.9;100.0
48680;BME280;34475;51.658;5.634;2023-01-05T01:17:00;101440;;;9.9;100.0
48680;BME280;34475;51.658;5.634;2023-01-05T01:18:00;101430;;;9.9;100.0
48680;BME280;34475;51.658;5.634;2023-01-05T01:19:00;101430;;;9.9;100.0
48680;BME280;34475;51.658;5.634;2023-01-05T01:20:00;101430;;;9.9;100.0
48680;BME280;34475;51.658;5.634;2023-01-05T01:21:00;101430;;;9.9;100.0
48680;BME280;34475;51.658;5.634;2023-01-05T01:22:00;101440;;;9.8;100.0
48680;BME280;34475;51.658;5.634;2023-01-05T01:23:00;101440;;;9.8;100.0
48680;BME280;34475;51.658;5.634;2023-01-05T01:24:00;101440;;;9.9;100.0
48680;BME280;34475;51.658;5.634;2023-01-05T01:25:00;101440;;;9.9;100.0
48680;BME280;34475;51.658;5.634;2023-01-05T01:26:04;101440;;;9.8;100.0
48680;BME280;34475;51.658;5.634;2023-01-05T01:27:00;101440;;;9.8;100.0
48680;BME280;34475;51.658;5.634;2023-01-05T01:28:00;101440;;;9.8;100.0
48680;BME280;34475;51.658;5.634;2023-01-05T01:29:00;101440;;;9.8;100.0
48680;BME280;34475;51.658;5.634;2023-01-05T01:30:00;101450;;;9.8;100.0
48680;BME280;34475;51.658;5.634;2023-01-05T01:31:00;101450;;;9.8;100.0
48680;BME280;34475;51.658;5.634;2023-01-05T01:32:00;101450;;;9.8;100.0
48680;BME280;34475;51.658;5.634;2023-01-05T01:33:00;101450;;;9.8;100.0
48680;BME280;34475;51.658;5.634;2023-01-05T01:34:00;101450;;;9.8;100.0
48680;BME280;34475;51.658;5.634;2023-01-05T01:35:00;101450;;;9.8;100.0
48680;BME280;34475;51.658;5.634;2023-01-05T01:36:03;101460;;;9.7;100.0
48680;BME280;34475;51.658;5.634;2023-01-05T01:37:00;101460;;;9.7;100.0
48680;BME280;34475;51.658;5.634;2023-01-05T01:38:00;101460;;;9.7;100.0
48680;BME280;34475;51.658;5.634;2023-01-05T01:39:00;101460;;;9.7;100.0
48680;BME280;34475;51.658;5.634;2023-01-05T01:40:00;101450;;;9.8;100.0
48680;BME280;34475;51.658;5.634;2023-01-05T01:41:00;101450;;;9.8;100.0
48680;BME280;34475;51.658;5.634;2023-01-05T01:42:00;101460;;;9.7;100.0
48680;BME280;34475;51.658;5.634;2023-01-05T01:43:00;101460;;;9.7;100.0
48680;BME280;34475;51.658;5.634;2023-01-05T01:44:00;101460;;;9.6;100.0
48680;BME280;34475;51.658;5.634;2023-01-05T01:45:01;101460;;;9.6;100.0
48680;BME280;34475;51.658;5.634;2023-01-05T01:46:00;101460;;;9.7;100.0
48680;BME280;34475;51.658;5.634;2023-01-05T01:47:00;101460;;;9.7;100.0
48680;BME280;34475;51.658;5.634;2023-01-05T01:48:00;101470;;;9.7;100.0
48680;BME280;34475;51.658;5.634;2023-01-05T01:49:01;101470;;;9.7;100.0
48680;BME280;34475;51.658;5.634;2023-01-05T01:50:02;101470;;;9.7;100.0
48680;BME280;34475;51.658;5.634;2023-01-05T01:51:01;101470;;;9.7;100.0
48680;BME280;34475;51.658;5.634;2023-01-05T01:52:00;101470;;;9.6;100.0
48680;BME280;34475;51.658;5.634;2023-01-05T01:53:04;101470;;;9.6;100.0
48680;BME280;34475;51.658;5.634;2023-01-05T01:54:01;101490;;;9.7;100.0
48680;BME280;34475;51.658;5.634;2023-01-05T01:55:00;101490;;;9.7;100.0
48680;BME280;34475;51.658;5.634;2023-01-05T01:56:01;101490;;;9.7;100.0
48680;BME280;34475;51.658;5.634;2023-01-05T01:57:00;101490;;;9.7;100.0
48680;BME280;34475;51.658;5.634;2023-01-05T01:58:00;101490;;;9.7;100.0
48680;BME280;34475;51.658;5.634;2023-01-05T01:59:00;101490;;;9.7;100.0
48680;BME280;34475;51.658;5.634;2023-01-05T02:00:00;101490;;;9.7;100.0
48680;BME280;34475;51.658;5.634;2023-01-05T02:01:00;101490;;;9.7;100.0
48680;BME280;34475;51.658;5.634;2023-01-05T02:02:00;101490;;;9.8;100.0
48680;BME280;34475;51.658;5.634;2023-01-05T02:03:00;101490;;;9.8;100.0
48680;BME280;34475;51.658;5.634;2023-01-05T02:04:00;101500;;;9.8;100.0
48680;BME280;34475;51.658;5.634;2023-01-05T02:05:01;101500;;;9.8;100.0
48680;BME280;34475;51.658;5.634;2023-01-05T02:06:00;101500;;;9.9;100.0
48680;BME280;34475;51.658;5.634;2023-01-05T02:07:00;101500;;;9.9;100.0
48680;BME280;34475;51.658;5.634;2023-01-05T02:08:00;101500;;;9.9;100.0
48680;BME280;34475;51.658;5.634;2023-01-05T02:09:00;101500;;;9.9;100.0
48680;BME280;34475;51.658;5.634;2023-01-05T02:10:00;101500;;;9.9;100.0
48680;BME280;34475;51.658;5.634;2023-01-05T02:12:03;101490;;;9.9;100.0
48680;BME280;34475;51.658;5.634;2023-01-05T02:13:03;101490;;;9.9;100.0
48680;BME280;34475;51.658;5.634;2023-01-05T02:14:03;101490;;;9.8;100.0
48680;BME280;34475;51.658;5.634;2023-01-05T02:15:19;101490;;;9.8;100.0
48680;BME280;34475;51.658;5.634;2023-01-05T02:16:18;101490;;;9.8;100.0
48680;BME280;34475;51.658;5.634;2023-01-05T02:23:19;101500;;;9.9;100.0
48680;BME280;34475;51.658;5.634;2023-01-05T02:24:14;101500;;;9.9;100.0
48680;BME280;34475;51.658;5.634;2023-01-05T02:29:06;101510;;;9.9;100.0
48680;BME280;34475;51.658;5.634;2023-01-05T02:30:09;101500;;;9.9;100.0
48680;BME280;34475;51.658;5.634;2023-01-05T02:31:02;101500;;;9.9;100.0
48680;BME280;34475;51.658;5.634;2023-01-05T02:32:04;101500;;;9.9;100.0
48680;BME280;34475;51.658;5.634;2023-01-05T02:33:04;101500;;;9.9;100.0
48680;BME280;34475;51.658;5.634;2023-01-05T02:35:04;101500;;;9.9;100.0
48680;BME280;34475;51.658;5.634;2023-01-05T02:36:08;101500;;;9.9;100.0
48680;BME280;34475;51.658;5.634;2023-01-05T02:37:03;101500;;;9.9;100.0
48680;BME280;34475;51.658;5.634;2023-01-05T02:38:02;101490;;;9.9;100.0
48680;BME280;34475;51.658;5.634;2023-01-05T02:39:03;101490;;;9.9;100.0
48680;BME280;34475;51.658;5.634;2023-01-05T02:40:03;101490;;;9.9;100.0
48680;BME280;34475;51.658;5.634;2023-01-05T02:41:18;101490;;;9.9;100.0
48680;BME280;34475;51.658;5.634;2023-01-05T02:42:03;101490;;;9.8;100.0
48680;BME280;34475;51.658;5.634;2023-01-05T02:43:00;101490;;;9.8;100.0
48680;BME280;34475;51.658;5.634;2023-01-05T02:44:00;101500;;;9.9;100.0
48680;BME280;34475;51.658;5.634;2023-01-05T02:45:00;101500;;;9.9;100.0
48680;BME280;34475;51.658;5.634;2023-01-05T02:46:00;101500;;;9.9;100.0
48680;BME280;34475;51.658;5.634;2023-01-05T02:48:00;101490;;;9.9;100.0
48680;BME280;34475;51.658;5.634;2023-01-05T02:49:00;101490;;;9.9;100.0
48680;BME280;34475;51.658;5.634;2023-01-05T02:50:01;101500;;;9.9;100.0
48680;BME280;34475;51.658;5.634;2023-01-05T02:51:01;101500;;;9.9;100.0
48680;BME280;34475;51.658;5.634;2023-01-05T02:52:00;101500;;;9.9;100.0
48680;BME280;34475;51.658;5.634;2023-01-05T02:54:01;101500;;;9.9;100.0
48680;BME280;34475;51.658;5.634;2023-01-05T02:55:01;101500;;;9.9;100.0
48680;BME280;34475;51.658;5.634;2023-01-05T02:56:03;101500;;;10.0;100.0
48680;BME280;34475;51.658;5.634;2023-01-05T02:57:02;101500;;;10.0;100.0
48680;BME280;34475;51.658;5.634;2023-01-05T02:58:02;101500;;;10.0;100.0
48680;BME280;34475;51.658;5.634;2023-01-05T02:59:02;101500;;;10.0;100.0
48680;BME280;34475;51.658;5.634;2023-01-05T03:00:00;101510;;;10.0;100.0
48680;BME280;34475;51.658;5.634;2023-01-05T03:01:02;101510;;;10.0;100.0
48680;BME280;34475;51.658;5.634;2023-01-05T03:02:01;101510;;;10.1;100.0
48680;BME280;34475;51.658;5.634;2023-01-05T03:03:01;101510;;;10.1;100.0
48680;BME280;34475;51.658;5.634;2023-01-05T03:04:02;101510;;;10.1;100.0
48680;BME280;34475;51.658;5.634;2023-01-05T03:05:01;101510;;;10.1;100.0
48680;BME280;34475;51.658;5.634;2023-01-05T03:06:01;101500;;;10.1;100.0
48680;BME280;34475;51.658;5.634;2023-01-05T03:07:01;101500;;;10.1;100.0
48680;BME280;34475;51.658;5.634;2023-01-05T03:08:00;101500;;;10.0;100.0
48680;BME280;34475;51.658;5.634;2023-01-05T03:09:01;101500;;;10.0;100.0
48680;BME280;34475;51.658;5.634;2023-01-05T03:10:00;101500;;;10.0;100.0
48680;BME280;34475;51.658;5.634;2023-01-05T03:11:02;101500;;;10.0;100.0
48680;BME280;34475;51.658;5.634;2023-01-05T03:12:02;101490;;;9.9;100.0
48680;BME280;34475;51.658;5.634;2023-01-05T03:13:01;101490;;;9.9;100.0
48680;BME280;34475;51.658;5.634;2023-01-05T03:14:06;101490;;;9.9;100.0
48680;BME280;34475;51.658;5.634;2023-01-05T03:16:00;101490;;;9.8;100.0
48680;BME280;34475;51.658;5.634;2023-01-05T03:17:00;101490;;;9.8;100.0
48680;BME280;34475;51.658;5.634;2023-01-05T03:18:03;101500;;;9.9;100.0
48680;BME280;34475;51.658;5.634;2023-01-05T03:19:01;101500;;;9.9;100.0
48680;BME280;34475;51.658;5.634;2023-01-05T03:20:00;101510;;;9.8;100.0
48680;BME280;34475;51.658;5.634;2023-01-05T03:21:00;101510;;;9.8;100.0
48680;BME280;34475;51.658;5.634;2023-01-05T03:22:02;101500;;;9.9;100.0
48680;BME280;34475;51.658;5.634;2023-01-05T03:23:01;101500;;;9.9;100.0
48680;BME280;34475;51.658;5.634;2023-01-05T03:24:00;101500;;;9.9;100.0
48680;BME280;34475;51.658;5.634;2023-01-05T03:25:00;101500;;;9.9;100.0
48680;BME280;34475;51.658;5.634;2023-01-05T03:26:00;101500;;;10.0;100.0
48680;BME280;34475;51.658;5.634;2023-01-05T03:27:00;101500;;;10.0;100.0
48680;BME280;34475;51.658;5.634;2023-01-05T03:28:00;101500;;;10.0;100.0
48680;BME280;34475;51.658;5.634;2023-01-05T03:29:00;101500;;;10.0;100.0
48680;BME280;34475;51.658;5.634;2023-01-05T03:30:00;101510;;;10.1;100.0
48680;BME280;34475;51.658;5.634;2023-01-05T03:31:05;101510;;;10.1;100.0
48680;BME280;34475;51.658;5.634;2023-01-05T03:32:01;101510;;;10.1;100.0
48680;BME280;34475;51.658;5.634;2023-01-05T03:33:08;101510;;;10.1;100.0
48680;BME280;34475;51.658;5.634;2023-01-05T03:34:02;101510;;;10.1;100.0
48680;BME280;34475;51.658;5.634;2023-01-05T03:35:02;101510;;;10.1;100.0
48680;BME280;34475;51.658;5.634;2023-01-05T03:36:00;101510;;;10.0;100.0
48680;BME280;34475;51.658;5.634;2023-01-05T03:37:01;101510;;;10.0;100.0
48680;BME280;34475;51.658;5.634;2023-01-05T03:39:00;101510;;;10.1;100.0
48680;BME280;34475;51.658;5.634;2023-01-05T03:40:00;101510;;;10.0;100.0
48680;BME280;34475;51.658;5.634;2023-01-05T03:41:01;101510;;;10.0;100.0
48680;BME280;34475;51.658;5.634;2023-01-05T03:42:00;101510;;;9.9;100.0
48680;BME280;34475;51.658;5.634;2023-01-05T03:43:00;101510;;;9.9;100.0
48680;BME280;34475;51.658;5.634;2023-01-05T03:44:00;101500;;;9.9;100.0
48680;BME280;34475;51.658;5.634;2023-01-05T03:45:00;101500;;;9.9;100.0
48680;BME280;34475;51.658;5.634;2023-01-05T03:46:00;101510;;;9.9;100.0
48680;BME280;34475;51.658;5.634;2023-01-05T03:47:00;101510;;;9.9;100.0
48680;BME280;34475;51.658;5.634;2023-01-05T03:48:00;101510;;;10.0;100.0
48680;BME280;34475;51.658;5.634;2023-01-05T03:49:00;101510;;;10.0;100.0
48680;BME280;34475;51.658;5.634;2023-01-05T03:50:00;101510;;;10.0;100.0
48680;BME280;34475;51.658;5.634;2023-01-05T03:51:00;101510;;;10.0;100.0
48680;BME280;34475;51.658;5.634;2023-01-05T03:52:00;101500;;;10.0;100.0
48680;BME280;34475;51.658;5.634;2023-01-05T03:53:00;101500;;;10.0;100.0
48680;BME280;34475;51.658;5.634;2023-01-05T03:54:00;101500;;;9.9;100.0
48680;BME280;34475;51.658;5.634;2023-01-05T03:55:00;101500;;;9.9;100.0
48680;BME280;34475;51.658;5.634;2023-01-05T03:56:00;101500;;;9.9;100.0
48680;BME280;34475;51.658;5.634;2023-01-05T03:57:00;101500;;;9.9;100.0
48680;BME280;34475;51.658;5.634;2023-01-05T03:58:00;101510;;;9.9;100.0
48680;BME280;34475;51.658;5.634;2023-01-05T03:59:00;101510;;;9.9;100.0
48680;BME280;34475;51.658;5.634;2023-01-05T04:00:00;101500;;;10.0;100.0
48680;BME280;34475;51.658;5.634;2023-01-05T04:01:00;101500;;;10.0;100.0
48680;BME280;34475;51.658;5.634;2023-01-05T04:02:00;101500;;;10.1;100.0
48680;BME280;34475;51.658;5.634;2023-01-05T04:03:00;101500;;;10.1;100.0
48680;BME280;34475;51.658;5.634;2023-01-05T04:04:00;101510;;;10.1;100.0
48680;BME280;34475;51.658;5.634;2023-01-05T04:05:00;101510;;;10.1;100.0
48680;BME280;34475;51.658;5.634;2023-01-05T04:06:00;101510;;;10.0;100.0
48680;BME280;34475;51.658;5.634;2023-01-05T04:07:00;101510;;;10.0;100.0
48680;BME280;34475;51.658;5.634;2023-01-05T04:08:00;101510;;;10.1;100.0
48680;BME280;34475;51.658;5.634;2023-01-05T04:09:00;101510;;;10.1;100.0
48680;BME280;34475;51.658;5.634;2023-01-05T04:10:00;101520;;;10.1;100.0
48680;BME280;34475;51.658;5.634;2023-01-05T04:11:16;101520;;;10.1;100.0
48680;BME280;34475;51.658;5.634;2023-01-05T04:12:00;101510;;;10.1;100.0
48680;BME280;34475;51.658;5.634;2023-01-05T04:13:00;101510;;;10.1;100.0
48680;BME280;34475;51.658;5.634;2023-01-05T04:14:00;101510;;;10.1;100.0
48680;BME280;34475;51.658;5.634;2023-01-05T04:15:00;101510;;;10.1;100.0
48680;BME280;34475;51.658;5.634;2023-01-05T04:16:00;101510;;;10.0;100.0
48680;BME280;34475;51.658;5.634;2023-01-05T04:17:00;101510;;;10.0;100.0
48680;BME280;34475;51.658;5.634;2023-01-05T04:18:00;101520;;;10.0;100.0
48680;BME280;34475;51.658;5.634;2023-01-05T04:19:00;101520;;;10.0;100.0
48680;BME280;34475;51.658;5.634;2023-01-05T04:20:00;101520;;;10.1;100.0
48680;BME280;34475;51.658;5.634;2023-01-05T04:21:00;101520;;;10.1;100.0
48680;BME280;34475;51.658;5.634;2023-01-05T04:22:00;101510;;;10.1;100.0
48680;BME280;34475;51.658;5.634;2023-01-05T04:23:00;101510;;;10.1;100.0
48680;BME280;34475;51.658;5.634;2023-01-05T04:24:00;101510;;;10.1;100.0
48680;BME280;34475;51.658;5.634;2023-01-05T04:25:00;101510;;;10.1;100.0
48680;BME280;34475;51.658;5.634;2023-01-05T04:26:00;101520;;;10.1;100.0
48680;BME280;34475;51.658;5.634;2023-01-05T04:27:00;101520;;;10.1;100.0
48680;BME280;34475;51.658;5.634;2023-01-05T04:28:00;101520;;;10.1;100.0
48680;BME280;34475;51.658;5.634;2023-01-05T04:29:00;101520;;;10.1;100.0
48680;BME280;34475;51.658;5.634;2023-01-05T04:30:00;101520;;;10.0;100.0
48680;BME280;34475;51.658;5.634;2023-01-05T04:31:00;101520;;;10.0;100.0
48680;BME280;34475;51.658;5.634;2023-01-05T04:32:00;101530;;;10.1;100.0
48680;BME280;34475;51.658;5.634;2023-01-05T04:33:00;101530;;;10.1;100.0
48680;BME280;34475;51.658;5.634;2023-01-05T04:34:00;101520;;;10.1;100.0
48680;BME280;34475;51.658;5.634;2023-01-05T04:35:00;101520;;;10.1;100.0
48680;BME280;34475;51.658;5.634;2023-01-05T04:36:00;101530;;;10.1;100.0
48680;BME280;34475;51.658;5.634;2023-01-05T04:37:00;101530;;;10.1;100.0
48680;BME280;34475;51.658;5.634;2023-01-05T04:38:00;101520;;;10.1;100.0
48680;BME280;34475;51.658;5.634;2023-01-05T04:39:00;101520;;;10.1;100.0
48680;BME280;34475;51.658;5.634;2023-01-05T04:40:00;101520;;;10.2;100.0
48680;BME280;34475;51.658;5.634;2023-01-05T04:41:00;101520;;;10.2;100.0
48680;BME280;34475;51.658;5.634;2023-01-05T04:42:00;101520;;;10.3;100.0
48680;BME280;34475;51.658;5.634;2023-01-05T04:43:00;101520;;;10.3;100.0
48680;BME280;34475;51.658;5.634;2023-01-05T04:44:00;101520;;;10.3;100.0
48680;BME280;34475;51.658;5.634;2023-01-05T04:45:00;101520;;;10.3;100.0
48680;BME280;34475;51.658;5.634;2023-01-05T04:46:00;101530;;;10.2;100.0
48680;BME280;34475;51.658;5.634;2023-01-05T04:47:00;101530;;;10.2;100.0
48680;BME280;34475;51.658;5.634;2023-01-05T04:48:00;101520;;;10.1;100.0
48680;BME280;34475;51.658;5.634;2023-01-05T04:49:00;101520;;;10.1;100.0
48680;BME280;34475;51.658;5.634;2023-01-05T04:50:00;101520;;;10.1;100.0
48680;BME280;34475;51.658;5.634;2023-01-05T04:51:00;101520;;;10.1;100.0
48680;BME280;34475;51.658;5.634;2023-01-05T04:52:00;101530;;;10.2;100.0
48680;BME280;34475;51.658;5.634;2023-01-05T04:53:00;101530;;;10.2;100.0
48680;BME280;34475;51.658;5.634;2023-01-05T04:54:00;101520;;;10.1;100.0
48680;BME280;34475;51.658;5.634;2023-01-05T04:55:00;101520;;;10.1;100.0
48680;BME280;34475;51.658;5.634;2023-01-05T04:56:00;101520;;;10.2;100.0
48680;BME280;34475;51.658;5.634;2023-01-05T04:57:00;101520;;;10.2;100.0
48680;BME280;34475;51.658;5.634;2023-01-05T04:58:00;101520;;;10.2;100.0
48680;BME280;34475;51.658;5.634;2023-01-05T04:59:00;101520;;;10.2;100.0
48680;BME280;34475;51.658;5.634;2023-01-05T05:00:00;101520;;;10.2;100.0
48680;BME280;34475;51.658;5.634;2023-01-05T05:01:00;101520;;;10.2;100.0
48680;BME280;34475;51.658;5.634;2023-01-05T05:02:00;101520;;;10.2;100.0
48680;BME280;34475;51.658;5.634;2023-01-05T05:03:00;101520;;;10.2;100.0
48680;BME280;34475;51.658;5.634;2023-01-05T05:04:00;101530;;;10.1;100.0
48680;BME280;34475;51.658;5.634;2023-01-05T05:05:00;101530;;;10.1;100.0
48680;BME280;34475;51.658;5.634;2023-01-05T05:06:00;101520;;;10.1;100.0
48680;BME280;34475;51.658;5.634;2023-01-05T05:07:00;101520;;;10.1;100.0
48680;BME280;34475;51.658;5.634;2023-01-05T05:08:00;101530;;;10.1;100.0
48680;BME280;34475;51.658;5.634;2023-01-05T05:09:00;101530;;;10.1;100.0
48680;BME280;34475;51.658;5.634;2023-01-05T05:10:00;101530;;;10.3;100.0
48680;BME280;34475;51.658;5.634;2023-01-05T05:11:00;101530;;;10.3;100.0
48680;BME280;34475;51.658;5.634;2023-01-05T05:12:00;101530;;;10.3;100.0
48680;BME280;34475;51.658;5.634;2023-01-05T05:13:00;101530;;;10.3;100.0
48680;BME280;34475;51.658;5.634;2023-01-05T05:14:00;101530;;;10.2;100.0
48680;BME280;34475;51.658;5.634;2023-01-05T05:15:00;101530;;;10.2;100.0
48680;BME280;34475;51.658;5.634;2023-01-05T05:16:00;101530;;;10.1;100.0
48680;BME280;34475;51.658;5.634;2023-01-05T05:17:00;101530;;;10.1;100.0
48680;BME280;34475;51.658;5.634;2023-01-05T05:18:00;101540;;;10.1;100.0
48680;BME280;34475;51.658;5.634;2023-01-05T05:19:00;101540;;;10.1;100.0
48680;BME280;34475;51.658;5.634;2023-01-05T05:20:00;101550;;;10.2;100.0
48680;BME280;34475;51.658;5.634;2023-01-05T05:21:00;101550;;;10.2;100.0
48680;BME280;34475;51.658;5.634;2023-01-05T05:22:00;101550;;;10.3;100.0
48680;BME280;34475;51.658;5.634;2023-01-05T05:23:00;101550;;;10.3;100.0
48680;BME280;34475;51.658;5.634;2023-01-05T05:24:00;101550;;;10.2;100.0
48680;BME280;34475;51.658;5.634;2023-01-05T05:25:00;101550;;;10.2;100.0
48680;BME280;34475;51.658;5.634;2023-01-05T05:26:00;101550;;;10.3;100.0
48680;BME280;34475;51.658;5.634;2023-01-05T05:27:00;101550;;;10.3;100.0
48680;BME280;34475;51.658;5.634;2023-01-05T05:28:00;101560;;;10.2;100.0
48680;BME280;34475;51.658;5.634;2023-01-05T05:29:00;101560;;;10.2;100.0
48680;BME280;34475;51.658;5.634;2023-01-05T05:30:00;101560;;;10.3;100.0
48680;BME280;34475;51.658;5.634;2023-01-05T05:31:00;101560;;;10.3;100.0
48680;BME280;34475;51.658;5.634;2023-01-05T05:32:00;101550;;;10.3;100.0
48680;BME280;34475;51.658;5.634;2023-01-05T05:33:00;101550;;;10.3;100.0
48680;BME280;34475;51.658;5.634;2023-01-05T05:34:00;101570;;;10.3;100.0
48680;BME280;34475;51.658;5.634;2023-01-05T05:35:00;101570;;;10.3;100.0
48680;BME280;34475;51.658;5.634;2023-01-05T05:36:00;101550;;;10.2;100.0
48680;BME280;34475;51.658;5.634;2023-01-05T05:37:00;101550;;;10.2;100.0
48680;BME280;34475;51.658;5.634;2023-01-05T05:38:00;101560;;;10.2;100.0
48680;BME280;34475;51.658;5.634;2023-01-05T05:39:00;101560;;;10.2;100.0
48680;BME280;34475;51.658;5.634;2023-01-05T05:40:00;101560;;;10.3;100.0
48680;BME280;34475;51.658;5.634;2023-01-05T05:41:00;101560;;;10.3;100.0
48680;BME280;34475;51.658;5.634;2023-01-05T05:42:00;101570;;;10.4;100.0
48680;BME280;34475;51.658;5.634;2023-01-05T05:43:00;101570;;;10.4;100.0
48680;BME280;34475;51.658;5.634;2023-01-05T05:44:00;101570;;;10.3;100.0
48680;BME280;34475;51.658;5.634;2023-01-05T05:45:00;101570;;;10.3;100.0
48680;BME280;34475;51.658;5.634;2023-01-05T05:46:00;101570;;;10.1;100.0
48680;BME280;34475;51.658;5.634;2023-01-05T05:47:00;101570;;;10.1;100.0
48680;BME280;34475;51.658;5.634;2023-01-05T05:48:00;101570;;;10.1;100.0